Time;durP1;ratioP1;P1;durP2;ratioP2;P2;SDS_P1;SDS_P2;PMS_P1;PMS_P2;Temp;Humidity;BMP_temperature;BMP_pressure;BME280_temperature;BME280_humidity;BME280_pressure;Samples;Min_cycle;Max_cycle;Signal;HPM_P1;HPM_P2
2023/09/29 00:01:47;;;;;;;;;;;17.50;99.90;;;;;;8419457;28;19943;-71
2023/09/29 00:05:49;;;;;;;;;;;17.50;99.90;;;;;;8422741;28;19932;-71
2023/09/29 00:09:51;;;;;;;;;;;17.60;99.90;;;;;;8393593;28;19928;-71
2023/09/29 00:13:52;;;;;;;;;;;17.60;99.90;;;;;;8414539;28;19950;-71
2023/09/29 00:17:54;;;;;;;;;;;17.60;99.90;;;;;;8414473;28;20390;-71
2023/09/29 00:21:56;;;;;;;;;;;17.60;99.90;;;;;;8417327;28;19935;-71
2023/09/29 00:25:57;;;;;;;;;;;17.60;99.90;;;;;;8420144;28;19943;-71
2023/09/29 00:29:59;;;;;;;;;;;17.60;99.90;;;;;;8418027;28;20292;-71
2023/09/29 00:34:01;;;;;;;;;;;17.60;99.90;;;;;;8404987;28;19988;-70
2023/09/29 00:38:03;;;;;;;;;;;17.70;99.90;;;;;;8411254;28;19977;-71
2023/09/29 00:42:06;;;;;;;;;;;17.70;99.90;;;;;;8412556;28;19986;-71
2023/09/29 00:46:08;;;;;;;;;;;17.70;99.90;;;;;;8413533;28;19929;-70
2023/09/29 00:50:10;;;;;;;;;;;17.70;99.90;;;;;;8410341;28;19966;-70
2023/09/29 00:54:14;;;;;;;;;;;17.70;99.90;;;;;;8411233;28;19931;-70
2023/09/29 00:58:17;;;;;;;;;;;17.70;99.90;;;;;;8398300;28;19928;-71
2023/09/29 01:02:20;;;;;;;;;;;17.70;99.90;;;;;;8416840;28;19928;-70
2023/09/29 01:06:22;;;;;;;;;;;17.70;99.90;;;;;;8399336;28;20316;-71
2023/09/29 01:10:25;;;;;;;;;;;17.70;99.90;;;;;;8408421;28;19933;-70
2023/09/29 01:14:27;;;;;;;;;;;17.70;99.90;;;;;;8398220;28;19924;-70
2023/09/29 01:18:29;;;;;;;;;;;17.70;99.90;;;;;;8411603;28;19960;-70
2023/09/29 01:22:31;;;;;;;;;;;17.70;99.90;;;;;;8422317;28;19925;-71
2023/09/29 01:26:32;;;;;;;;;;;17.70;99.90;;;;;;8404736;28;19924;-70
2023/09/29 01:30:36;;;;;;;;;;;17.80;99.90;;;;;;8394944;28;20332;-70
2023/09/29 01:34:38;;;;;;;;;;;17.80;99.90;;;;;;8414856;28;19932;-70
2023/09/29 01:38:39;;;;;;;;;;;17.80;99.90;;;;;;8398447;28;19977;-70
2023/09/29 01:42:42;;;;;;;;;;;17.80;99.90;;;;;;8412257;28;19931;-69
2023/09/29 01:46:44;;;;;;;;;;;17.90;99.90;;;;;;8413840;28;19986;-70
2023/09/29 01:50:46;;;;;;;;;;;17.90;99.90;;;;;;8418536;28;19935;-70
2023/09/29 01:54:49;;;;;;;;;;;17.90;99.90;;;;;;8411227;28;19924;-70
2023/09/29 01:58:51;;;;;;;;;;;17.90;99.90;;;;;;8421231;28;19931;-70
2023/09/29 02:02:53;;;;;;;;;;;17.90;99.90;;;;;;8408006;28;20294;-71
2023/09/29 02:06:55;;;;;;;;;;;17.90;99.90;;;;;;8408260;28;20291;-71
2023/09/29 02:10:57;;;;;;;;;;;17.90;99.90;;;;;;8392572;28;20073;-70
2023/09/29 02:14:59;;;;;;;;;;;18.00;99.90;;;;;;8406809;28;19946;-70
2023/09/29 02:19:00;;;;;;;;;;;17.90;99.90;;;;;;8413016;28;19931;-70
2023/09/29 02:23:04;;;;;;;;;;;18.00;99.90;;;;;;8415627;28;20330;-70
2023/09/29 02:27:06;;;;;;;;;;;18.00;99.90;;;;;;8396686;28;20352;-70
2023/09/29 02:31:11;;;;;;;;;;;18.00;99.90;;;;;;8412885;28;19928;-70
2023/09/29 02:35:13;;;;;;;;;;;17.90;99.90;;;;;;8409802;28;19924;-70
2023/09/29 02:39:14;;;;;;;;;;;17.90;99.90;;;;;;8421050;28;19932;-70
2023/09/29 02:43:16;;;;;;;;;;;17.90;99.90;;;;;;8391717;28;19978;-70
2023/09/29 02:47:18;;;;;;;;;;;17.90;99.90;;;;;;8408984;28;19924;-70
2023/09/29 02:51:19;;;;;;;;;;;17.90;99.90;;;;;;8405147;28;20287;-70
2023/09/29 02:55:22;;;;;;;;;;;17.90;99.90;;;;;;8406645;28;19981;-70
2023/09/29 02:59:24;;;;;;;;;;;17.90;99.90;;;;;;8400995;28;20359;-70
2023/09/29 03:03:26;;;;;;;;;;;17.90;99.90;;;;;;8410349;28;19925;-70
2023/09/29 03:07:28;;;;;;;;;;;17.90;99.90;;;;;;8389139;28;19925;-70
2023/09/29 03:11:29;;;;;;;;;;;17.90;99.90;;;;;;8412835;28;19924;-70
2023/09/29 03:15:31;;;;;;;;;;;17.90;99.90;;;;;;8410230;28;20042;-70
2023/09/29 03:19:34;;;;;;;;;;;17.90;99.90;;;;;;8418106;28;19924;-70
2023/09/29 03:23:36;;;;;;;;;;;17.90;99.90;;;;;;8422833;28;19924;-70
2023/09/29 03:27:39;;;;;;;;;;;17.90;99.90;;;;;;8418074;28;19968;-70
2023/09/29 03:31:41;;;;;;;;;;;17.90;99.90;;;;;;8431348;28;20402;-70
2023/09/29 03:35:43;;;;;;;;;;;17.90;99.90;;;;;;8411195;28;19924;-71
2023/09/29 03:39:46;;;;;;;;;;;17.90;99.90;;;;;;8418038;28;19932;-71
2023/09/29 03:43:49;;;;;;;;;;;17.90;99.90;;;;;;8422987;28;19924;-70
2023/09/29 03:47:51;;;;;;;;;;;17.90;99.90;;;;;;8419231;28;19932;-71
2023/09/29 03:51:53;;;;;;;;;;;17.90;99.90;;;;;;8412026;28;19970;-70
2023/09/29 03:55:56;;;;;;;;;;;17.90;99.90;;;;;;8393548;28;19971;-71
2023/09/29 03:59:57;;;;;;;;;;;18.00;99.90;;;;;;8416141;28;19931;-70
2023/09/29 04:04:01;;;;;;;;;;;18.00;99.90;;;;;;8423134;28;19931;-70
2023/09/29 04:08:03;;;;;;;;;;;18.00;99.90;;;;;;8424386;28;19939;-70
2023/09/29 04:12:04;;;;;;;;;;;18.00;99.90;;;;;;8422561;28;19940;-70
2023/09/29 04:16:07;;;;;;;;;;;18.00;99.90;;;;;;8433274;28;19932;-70
2023/09/29 04:20:09;;;;;;;;;;;18.00;99.90;;;;;;8421779;28;20287;-70
2023/09/29 04:24:11;;;;;;;;;;;18.00;99.90;;;;;;8424270;28;19931;-70
2023/09/29 04:28:13;;;;;;;;;;;18.00;99.90;;;;;;8431464;28;19932;-70
2023/09/29 04:32:14;;;;;;;;;;;18.00;99.90;;;;;;8421984;28;19928;-70
2023/09/29 04:36:16;;;;;;;;;;;18.10;99.90;;;;;;8421614;28;19931;-71
2023/09/29 04:40:18;;;;;;;;;;;18.00;99.90;;;;;;8419129;28;19924;-71
2023/09/29 04:44:19;;;;;;;;;;;18.00;99.90;;;;;;8410189;28;19924;-71
2023/09/29 04:48:21;;;;;;;;;;;18.00;99.90;;;;;;8410791;28;19990;-71
2023/09/29 04:52:23;;;;;;;;;;;18.00;99.90;;;;;;8422835;28;19977;-71
2023/09/29 04:56:25;;;;;;;;;;;18.10;99.90;;;;;;8402055;28;19931;-70
2023/09/29 05:00:26;;;;;;;;;;;18.00;99.90;;;;;;8413947;28;19976;-71
2023/09/29 05:04:29;;;;;;;;;;;18.10;99.90;;;;;;8403989;28;19936;-70
2023/09/29 05:08:31;;;;;;;;;;;18.00;99.90;;;;;;8412446;28;19928;-70
2023/09/29 05:12:33;;;;;;;;;;;18.10;99.90;;;;;;8412649;28;19931;-70
2023/09/29 05:16:34;;;;;;;;;;;18.10;99.90;;;;;;8411412;28;19977;-70
2023/09/29 05:20:36;;;;;;;;;;;18.10;99.90;;;;;;8407766;28;19924;-70
2023/09/29 05:24:38;;;;;;;;;;;18.10;99.90;;;;;;8413683;28;19928;-70
2023/09/29 05:28:40;;;;;;;;;;;18.00;99.90;;;;;;8421501;28;20265;-70
2023/09/29 05:32:41;;;;;;;;;;;18.00;99.90;;;;;;8419955;28;19924;-71
2023/09/29 05:36:45;;;;;;;;;;;18.00;99.90;;;;;;8416045;28;20311;-71
2023/09/29 05:40:49;;;;;;;;;;;18.00;99.90;;;;;;8404037;28;19924;-71
2023/09/29 05:44:51;;;;;;;;;;;18.10;99.90;;;;;;8418955;28;20349;-71
2023/09/29 05:48:53;;;;;;;;;;;18.10;99.90;;;;;;8384480;28;19928;-71
2023/09/29 05:52:56;;;;;;;;;;;18.10;99.90;;;;;;8394738;28;20421;-71
2023/09/29 05:57:10;;;;;;;;;;;18.10;99.90;;;;;;8414063;28;19928;-71
2023/09/29 06:01:13;;;;;;;;;;;18.20;99.90;;;;;;8417813;28;19981;-72
2023/09/29 06:05:14;;;;;;;;;;;18.20;99.90;;;;;;8418846;28;19924;-71
2023/09/29 06:09:16;;;;;;;;;;;18.20;99.90;;;;;;8412243;28;19928;-72
2023/09/29 06:13:18;;;;;;;;;;;18.20;99.90;;;;;;8408539;28;19928;-71
2023/09/29 06:17:19;;;;;;;;;;;18.30;99.90;;;;;;8410149;28;20006;-71
2023/09/29 06:21:21;;;;;;;;;;;18.30;99.90;;;;;;8409609;28;19932;-71
2023/09/29 06:25:22;;;;;;;;;;;18.40;99.90;;;;;;8415786;28;19931;-71
2023/09/29 06:29:24;;;;;;;;;;;18.40;99.90;;;;;;8416795;28;19928;-71
2023/09/29 06:33:26;;;;;;;;;;;18.40;99.90;;;;;;8414538;28;19969;-71
2023/09/29 06:37:27;;;;;;;;;;;18.50;99.90;;;;;;8416067;28;20398;-71
2023/09/29 06:41:29;;;;;;;;;;;18.50;99.90;;;;;;8408546;28;19932;-71
2023/09/29 06:45:32;;;;;;;;;;;18.60;99.90;;;;;;8409414;28;19932;-71
2023/09/29 06:49:53;;;;;;;;;;;18.60;99.90;;;;;;8417831;28;20011;-71
2023/09/29 06:53:55;;;;;;;;;;;18.60;99.90;;;;;;8417103;28;19935;-71
2023/09/29 06:57:58;;;;;;;;;;;18.60;99.90;;;;;;8411257;28;19965;-71
2023/09/29 07:02:00;;;;;;;;;;;18.70;99.90;;;;;;8405520;28;19928;-71
2023/09/29 07:06:02;;;;;;;;;;;18.70;99.90;;;;;;8396895;28;19978;-70
2023/09/29 07:10:04;;;;;;;;;;;18.70;99.90;;;;;;8388835;28;19929;-71
2023/09/29 07:14:06;;;;;;;;;;;18.80;99.90;;;;;;8400810;28;19953;-71
2023/09/29 07:18:12;;;;;;;;;;;18.80;99.90;;;;;;8415500;28;19931;-71
2023/09/29 07:22:14;;;;;;;;;;;18.80;99.90;;;;;;8412531;28;19985;-71
2023/09/29 07:26:16;;;;;;;;;;;18.90;99.90;;;;;;8414856;28;20421;-71
2023/09/29 07:30:18;;;;;;;;;;;18.90;99.90;;;;;;8408752;28;19928;-71
2023/09/29 07:34:20;;;;;;;;;;;19.00;99.90;;;;;;8416867;28;19924;-71
2023/09/29 07:38:21;;;;;;;;;;;19.00;99.90;;;;;;8415866;28;19928;-71
2023/09/29 07:42:23;;;;;;;;;;;19.10;99.90;;;;;;8414692;28;19925;-72
2023/09/29 07:46:25;;;;;;;;;;;19.10;99.90;;;;;;8398886;28;19924;-71
2023/09/29 07:50:26;;;;;;;;;;;19.20;99.90;;;;;;8416801;28;19924;-72
2023/09/29 07:54:28;;;;;;;;;;;19.30;99.90;;;;;;8409444;28;20398;-71
2023/09/29 07:58:30;;;;;;;;;;;19.30;99.90;;;;;;8418279;28;19986;-72
2023/09/29 08:02:32;;;;;;;;;;;19.30;99.90;;;;;;8409011;28;20014;-71
2023/09/29 08:06:33;;;;;;;;;;;19.30;99.90;;;;;;8424519;28;20034;-71
2023/09/29 08:10:35;;;;;;;;;;;19.40;99.90;;;;;;8400020;28;19924;-71
2023/09/29 08:14:37;;;;;;;;;;;19.40;99.90;;;;;;8424984;28;19963;-71
2023/09/29 08:18:38;;;;;;;;;;;19.40;99.90;;;;;;8430137;28;19928;-71
2023/09/29 08:22:40;;;;;;;;;;;19.50;99.90;;;;;;8404254;28;19947;-72
2023/09/29 08:26:43;;;;;;;;;;;19.50;99.90;;;;;;8428653;28;19960;-71
2023/09/29 08:30:45;;;;;;;;;;;19.50;99.90;;;;;;8413754;28;20312;-71
2023/09/29 08:34:47;;;;;;;;;;;19.60;99.90;;;;;;8420735;28;20428;-71
2023/09/29 08:38:48;;;;;;;;;;;19.70;99.90;;;;;;8418058;28;19924;-70
2023/09/29 08:42:50;;;;;;;;;;;19.80;99.90;;;;;;8416002;28;19924;-71
2023/09/29 08:46:52;;;;;;;;;;;19.80;99.90;;;;;;8414729;28;19930;-70
2023/09/29 08:50:57;;;;;;;;;;;19.90;99.90;;;;;;8414094;28;19931;-72
2023/09/29 08:55:02;;;;;;;;;;;20.00;99.90;;;;;;8417102;28;19924;-70
2023/09/29 08:59:04;;;;;;;;;;;20.10;99.90;;;;;;8422110;28;19985;-71
2023/09/29 09:03:06;;;;;;;;;;;20.10;99.90;;;;;;8414459;28;19924;-71
2023/09/29 09:07:07;;;;;;;;;;;20.10;99.90;;;;;;8414687;28;19989;-71
2023/09/29 09:11:09;;;;;;;;;;;20.20;99.90;;;;;;8405995;28;19983;-70
2023/09/29 09:15:11;;;;;;;;;;;20.30;99.90;;;;;;8422392;28;20291;-70
2023/09/29 09:19:14;;;;;;;;;;;20.30;99.90;;;;;;8409654;28;19994;-71
2023/09/29 09:23:15;;;;;;;;;;;20.40;99.90;;;;;;8415295;28;19963;-71
2023/09/29 09:27:21;;;;;;;;;;;20.40;99.90;;;;;;8409773;28;19925;-71
2023/09/29 09:31:23;;;;;;;;;;;20.50;99.90;;;;;;8414485;28;19952;-72
2023/09/29 09:35:26;;;;;;;;;;;20.50;99.90;;;;;;8422958;28;20007;-70
2023/09/29 09:39:28;;;;;;;;;;;20.50;99.90;;;;;;8415329;28;19931;-70
2023/09/29 09:43:34;;;;;;;;;;;20.50;99.90;;;;;;8413329;28;20402;-71
2023/09/29 09:47:37;;;;;;;;;;;20.50;99.90;;;;;;8408304;28;20272;-71
2023/09/29 09:51:41;;;;;;;;;;;20.60;99.90;;;;;;8415723;28;19947;-71
2023/09/29 09:55:55;;;;;;;;;;;20.50;99.90;;;;;;8416939;28;19924;-71
2023/09/29 10:00:00;;;;;;;;;;;20.50;99.90;;;;;;8416159;28;19924;-71
2023/09/29 10:04:06;;;;;;;;;;;20.40;99.90;;;;;;8401495;28;19924;-71
2023/09/29 10:08:12;;;;;;;;;;;20.40;99.90;;;;;;8415807;28;19978;-72
2023/09/29 10:12:27;;;;;;;;;;;20.30;99.90;;;;;;8412692;28;20380;-72
2023/09/29 10:16:29;;;;;;;;;;;20.40;99.90;;;;;;8409949;28;19932;-72
2023/09/29 10:20:33;;;;;;;;;;;20.40;99.90;;;;;;8414154;28;20276;-72
2023/09/29 10:24:35;;;;;;;;;;;20.40;99.90;;;;;;8400797;28;20253;-70
2023/09/29 10:28:40;;;;;;;;;;;20.40;99.90;;;;;;8408169;28;20428;-71
2023/09/29 10:32:43;;;;;;;;;;;20.40;99.90;;;;;;8406744;28;19935;-72
2023/09/29 10:36:45;;;;;;;;;;;20.20;99.90;;;;;;8420455;28;19931;-72
2023/09/29 10:40:48;;;;;;;;;;;20.20;99.90;;;;;;8419160;28;19924;-72
2023/09/29 10:44:54;;;;;;;;;;;20.10;99.90;;;;;;8407766;28;19970;-71
2023/09/29 10:48:56;;;;;;;;;;;20.00;99.90;;;;;;8394612;28;19981;-71
2023/09/29 10:52:58;;;;;;;;;;;20.00;99.90;;;;;;8421154;28;19924;-72
2023/09/29 10:56:59;;;;;;;;;;;20.00;99.90;;;;;;8403919;28;20311;-71
2023/09/29 11:01:01;;;;;;;;;;;20.00;99.90;;;;;;8413044;28;19924;-72
2023/09/29 11:05:05;;;;;;;;;;;20.00;99.90;;;;;;8416655;28;19924;-71
2023/09/29 11:09:07;;;;;;;;;;;20.10;99.90;;;;;;8410861;28;19938;-72
2023/09/29 11:13:15;;;;;;;;;;;20.10;99.90;;;;;;8400377;28;19975;-72
2023/09/29 11:17:17;;;;;;;;;;;20.10;99.90;;;;;;8413316;28;19932;-71
2023/09/29 11:21:19;;;;;;;;;;;20.10;99.90;;;;;;8399325;28;19924;-71
2023/09/29 11:25:21;;;;;;;;;;;20.00;99.90;;;;;;8388188;28;19974;-71
2023/09/29 11:29:23;;;;;;;;;;;19.90;99.90;;;;;;8387347;28;19964;-72
2023/09/29 11:33:25;;;;;;;;;;;19.90;99.90;;;;;;8368808;28;19928;-74
2023/09/29 11:37:28;;;;;;;;;;;19.80;99.90;;;;;;8387415;28;19928;-72
2023/09/29 11:41:30;;;;;;;;;;;19.60;99.90;;;;;;8395459;28;19981;-72
2023/09/29 11:45:31;;;;;;;;;;;19.40;99.90;;;;;;8411783;28;20391;-73
2023/09/29 11:49:33;;;;;;;;;;;19.20;99.90;;;;;;8392863;28;19939;-71
2023/09/29 11:53:35;;;;;;;;;;;19.10;99.90;;;;;;8393544;28;19925;-71
2023/09/29 11:57:40;;;;;;;;;;;19.00;99.90;;;;;;8393584;28;19967;-71
2023/09/29 12:01:42;;;;;;;;;;;18.90;99.90;;;;;;8399512;28;19924;-71
2023/09/29 12:05:45;;;;;;;;;;;18.90;99.90;;;;;;8389843;28;19929;-72
2023/09/29 12:09:47;;;;;;;;;;;18.80;99.90;;;;;;8390958;28;19971;-71
2023/09/29 12:13:49;;;;;;;;;;;18.70;99.90;;;;;;8389595;28;19929;-71
2023/09/29 12:17:50;;;;;;;;;;;18.70;99.90;;;;;;8398682;28;19924;-71
2023/09/29 12:21:52;;;;;;;;;;;18.70;99.90;;;;;;8394838;28;20023;-71
2023/09/29 12:25:54;;;;;;;;;;;18.70;99.90;;;;;;8388188;28;19956;-72
2023/09/29 12:29:55;;;;;;;;;;;18.70;99.90;;;;;;8390263;28;19928;-72
2023/09/29 12:33:57;;;;;;;;;;;18.80;99.90;;;;;;8408815;28;19944;-72
2023/09/29 12:37:59;;;;;;;;;;;18.70;99.90;;;;;;8374847;28;20015;-71
2023/09/29 12:42:01;;;;;;;;;;;18.70;99.90;;;;;;8390614;28;19932;-72
2023/09/29 12:46:02;;;;;;;;;;;18.70;99.90;;;;;;8390930;28;19934;-71
2023/09/29 12:50:04;;;;;;;;;;;18.70;99.90;;;;;;8394732;28;19929;-72
2023/09/29 12:54:06;;;;;;;;;;;18.60;99.90;;;;;;8393511;28;20291;-71
2023/09/29 12:58:08;;;;;;;;;;;18.60;99.90;;;;;;8390249;28;19924;-71
2023/09/29 13:02:11;;;;;;;;;;;18.60;99.90;;;;;;8388636;28;19946;-70
2023/09/29 13:06:12;;;;;;;;;;;18.70;99.90;;;;;;8390212;28;19939;-71
2023/09/29 13:10:15;;;;;;;;;;;18.60;99.90;;;;;;8385143;28;19932;-71
2023/09/29 13:14:17;;;;;;;;;;;18.70;99.90;;;;;;8388646;28;19932;-72
2023/09/29 13:18:19;;;;;;;;;;;18.60;99.90;;;;;;8392752;28;19970;-71
2023/09/29 13:22:21;;;;;;;;;;;18.70;99.90;;;;;;8389974;28;19951;-71
2023/09/29 13:26:23;;;;;;;;;;;18.60;99.90;;;;;;8390945;28;19924;-71
2023/09/29 13:30:24;;;;;;;;;;;18.70;99.90;;;;;;8389831;28;19928;-72
2023/09/29 13:34:32;;;;;;;;;;;18.70;99.90;;;;;;8386321;28;19928;-71
2023/09/29 13:38:33;;;;;;;;;;;18.70;99.90;;;;;;8392918;28;19928;-71
2023/09/29 13:42:35;;;;;;;;;;;18.70;99.90;;;;;;8392862;28;19981;-72
2023/09/29 13:46:37;;;;;;;;;;;18.70;99.90;;;;;;8375562;28;19924;-71
2023/09/29 13:50:52;;;;;;;;;;;18.60;99.90;;;;;;8386828;28;19931;-71
2023/09/29 13:54:54;;;;;;;;;;;18.70;99.90;;;;;;8391575;28;19932;-72
2023/09/29 13:58:55;;;;;;;;;;;18.70;99.90;;;;;;8392481;28;20504;-71
2023/09/29 14:02:58;;;;;;;;;;;18.80;99.90;;;;;;8385505;28;20214;-71
2023/09/29 14:07:00;;;;;;;;;;;18.80;99.90;;;;;;8396460;28;19991;-71
2023/09/29 14:11:01;;;;;;;;;;;19.00;99.90;;;;;;8374326;28;20280;-72
2023/09/29 14:15:04;;;;;;;;;;;19.20;99.90;;;;;;8391470;28;19928;-72
2023/09/29 14:19:05;;;;;;;;;;;19.30;99.90;;;;;;8393203;28;19929;-71
2023/09/29 14:23:07;;;;;;;;;;;19.50;99.90;;;;;;8392083;28;19928;-72
2023/09/29 14:27:09;;;;;;;;;;;19.50;99.90;;;;;;8389151;28;19929;-72
2023/09/29 14:31:12;;;;;;;;;;;19.40;99.90;;;;;;8387666;28;20419;-71
2023/09/29 14:35:14;;;;;;;;;;;19.30;99.90;;;;;;8387478;28;19931;-71
2023/09/29 14:39:17;;;;;;;;;;;19.30;99.90;;;;;;8390462;28;19936;-72
2023/09/29 14:43:18;;;;;;;;;;;19.10;99.90;;;;;;8390600;28;19938;-72
2023/09/29 14:47:20;;;;;;;;;;;19.00;99.90;;;;;;8384041;28;19924;-72
2023/09/29 14:51:22;;;;;;;;;;;18.90;99.90;;;;;;8391643;28;19971;-71
2023/09/29 14:55:23;;;;;;;;;;;18.90;99.90;;;;;;8389414;28;20024;-71
2023/09/29 14:59:26;;;;;;;;;;;18.80;99.90;;;;;;8386993;28;19932;-71
2023/09/29 15:03:30;;;;;;;;;;;18.90;99.90;;;;;;8411281;28;20378;-71
2023/09/29 15:07:32;;;;;;;;;;;18.90;99.90;;;;;;8391181;28;19939;-71
2023/09/29 15:11:34;;;;;;;;;;;18.90;99.90;;;;;;8393987;28;20441;-71
2023/09/29 15:15:40;;;;;;;;;;;19.00;99.90;;;;;;8403286;28;19928;-72
2023/09/29 15:19:42;;;;;;;;;;;19.00;99.90;;;;;;8386715;28;19932;-71
2023/09/29 15:23:44;;;;;;;;;;;19.10;99.90;;;;;;8390437;28;20370;-72
2023/09/29 15:27:46;;;;;;;;;;;19.10;99.90;;;;;;8385778;28;19957;-71
2023/09/29 15:31:49;;;;;;;;;;;19.10;99.90;;;;;;8387730;28;19940;-71
2023/09/29 15:35:54;;;;;;;;;;;19.00;99.90;;;;;;8389951;28;19928;-70
2023/09/29 15:39:57;;;;;;;;;;;18.90;99.90;;;;;;8394225;28;19932;-71
2023/09/29 15:43:58;;;;;;;;;;;18.90;99.90;;;;;;8389562;28;20418;-71
2023/09/29 15:48:00;;;;;;;;;;;18.90;99.90;;;;;;8379425;28;19928;-71
2023/09/29 15:52:03;;;;;;;;;;;18.90;99.90;;;;;;8376226;28;20406;-71
2023/09/29 15:56:05;;;;;;;;;;;18.90;99.90;;;;;;8390341;28;19932;-71
2023/09/29 16:00:07;;;;;;;;;;;19.00;99.90;;;;;;8382124;28;19959;-72
2023/09/29 16:04:09;;;;;;;;;;;19.00;99.90;;;;;;8391184;28;20450;-72
2023/09/29 16:08:11;;;;;;;;;;;18.90;99.90;;;;;;8386684;28;19928;-71
2023/09/29 16:12:14;;;;;;;;;;;18.80;99.90;;;;;;8383282;28;19928;-71
2023/09/29 16:16:15;;;;;;;;;;;18.70;99.90;;;;;;8395477;28;19924;-71
2023/09/29 16:20:17;;;;;;;;;;;18.60;99.90;;;;;;8384564;28;19932;-71
2023/09/29 16:24:19;;;;;;;;;;;18.60;99.90;;;;;;8392870;28;19932;-71
2023/09/29 16:38:28;;;;;;;;;;;18.40;99.90;;;;;;8396906;28;19939;-71
2023/09/29 16:42:30;;;;;;;;;;;18.40;99.90;;;;;;8394192;28;19928;-71
2023/09/29 16:46:31;;;;;;;;;;;18.30;99.90;;;;;;8393532;28;19925;-71
2023/09/29 16:50:33;;;;;;;;;;;18.20;99.90;;;;;;8395954;28;19935;-71
2023/09/29 16:54:35;;;;;;;;;;;18.20;99.90;;;;;;8387138;28;19931;-71
2023/09/29 16:58:37;;;;;;;;;;;18.10;99.90;;;;;;8398248;28;19956;-71
2023/09/29 17:02:39;;;;;;;;;;;18.00;99.90;;;;;;8403398;28;20001;-71
2023/09/29 17:06:42;;;;;;;;;;;18.00;99.90;;;;;;8404429;28;19954;-71
2023/09/29 17:10:43;;;;;;;;;;;18.00;99.90;;;;;;8407224;28;19971;-70
2023/09/29 17:14:45;;;;;;;;;;;18.00;99.90;;;;;;8408523;28;19924;-70
2023/09/29 17:18:47;;;;;;;;;;;17.90;99.90;;;;;;8403217;28;20367;-71
2023/09/29 17:23:01;;;;;;;;;;;17.80;99.90;;;;;;8397481;28;19924;-71
2023/09/29 17:27:03;;;;;;;;;;;17.80;99.90;;;;;;8396073;28;19924;-70
2023/09/29 17:31:07;;;;;;;;;;;17.70;99.90;;;;;;8393793;28;19978;-71
2023/09/29 17:35:09;;;;;;;;;;;17.60;99.90;;;;;;8394551;28;20309;-71
2023/09/29 17:44:48;;;;;;;;;;;17.40;99.90;;;;;;8396377;28;19923;-71
2023/09/29 17:48:50;;;;;;;;;;;17.30;99.90;;;;;;8389178;28;19939;-71
2023/09/29 17:52:51;;;;;;;;;;;17.30;99.90;;;;;;8376649;28;20306;-71
2023/09/29 17:56:53;;;;;;;;;;;17.20;99.90;;;;;;8406392;28;19982;-71
2023/09/29 18:01:04;;;;;;;;;;;17.10;99.90;;;;;;8396945;28;19970;-71
2023/09/29 18:05:06;;;;;;;;;;;17.10;99.90;;;;;;8387774;28;19967;-71
2023/09/29 18:09:08;;;;;;;;;;;17.10;99.90;;;;;;8385038;28;19924;-71
2023/09/29 18:13:10;;;;;;;;;;;17.10;99.90;;;;;;8389520;28;19928;-71
2023/09/29 18:32:26;;;;;;;;;;;16.80;99.90;;;;;;8389658;28;19920;-71
2023/09/29 18:36:27;;;;;;;;;;;16.70;99.90;;;;;;8386987;28;20345;-70
2023/09/29 18:40:29;;;;;;;;;;;16.60;99.90;;;;;;8390587;28;19928;-71
2023/09/29 18:44:31;;;;;;;;;;;16.50;99.90;;;;;;8392062;28;20449;-71
2023/09/29 18:48:32;;;;;;;;;;;16.40;99.90;;;;;;8382118;28;19936;-71
2023/09/29 18:52:34;;;;;;;;;;;16.40;99.90;;;;;;8392146;28;19985;-70
2023/09/29 18:56:40;;;;;;;;;;;16.30;99.90;;;;;;8401460;28;19928;-70
2023/09/29 19:00:42;;;;;;;;;;;16.20;99.90;;;;;;8379444;28;19931;-70
2023/09/29 19:04:44;;;;;;;;;;;16.20;99.90;;;;;;8391488;28;20398;-71
2023/09/29 19:08:46;;;;;;;;;;;16.10;99.90;;;;;;8381493;28;19928;-71
2023/09/29 19:12:48;;;;;;;;;;;16.00;99.90;;;;;;8395324;28;19951;-70
2023/09/29 19:16:50;;;;;;;;;;;15.90;99.90;;;;;;8383813;28;19946;-70
2023/09/29 19:20:51;;;;;;;;;;;15.90;99.90;;;;;;8395972;28;20609;-70
2023/09/29 19:24:56;;;;;;;;;;;15.80;99.90;;;;;;8380561;28;19938;-70
2023/09/29 19:28:58;;;;;;;;;;;15.80;99.90;;;;;;8380544;28;19925;-70
2023/09/29 19:32:59;;;;;;;;;;;15.70;99.90;;;;;;8390476;28;19985;-71
2023/09/29 19:37:01;;;;;;;;;;;15.70;99.90;;;;;;8388866;28;20011;-70
2023/09/29 19:41:03;;;;;;;;;;;15.60;99.90;;;;;;8387357;28;19990;-70
2023/09/29 19:45:05;;;;;;;;;;;15.50;99.90;;;;;;8387021;28;19931;-70
2023/09/29 19:49:07;;;;;;;;;;;15.40;99.90;;;;;;8387734;28;20034;-70
2023/09/29 19:53:09;;;;;;;;;;;15.40;99.90;;;;;;8388623;28;20497;-70
2023/09/29 19:57:10;;;;;;;;;;;15.30;99.90;;;;;;8391586;28;19929;-70
2023/09/29 20:16:24;;;;;;;;;;;15.20;99.90;;;;;;8394625;28;19969;-70
2023/09/29 20:20:26;;;;;;;;;;;15.10;99.90;;;;;;8392493;28;19951;-70
2023/09/29 20:24:27;;;;;;;;;;;15.10;99.90;;;;;;8383592;28;20375;-70
2023/09/29 20:28:30;;;;;;;;;;;15.00;99.90;;;;;;8392042;28;19936;-70
2023/09/29 20:32:32;;;;;;;;;;;15.00;99.90;;;;;;8393874;28;20304;-70
2023/09/29 20:36:34;;;;;;;;;;;14.90;99.90;;;;;;8375678;28;19932;-70
2023/09/29 20:40:37;;;;;;;;;;;14.80;99.90;;;;;;8395910;28;19928;-70
2023/09/29 20:44:39;;;;;;;;;;;14.80;99.90;;;;;;8377438;28;19943;-70
2023/09/29 20:48:41;;;;;;;;;;;14.70;99.90;;;;;;8396479;28;19985;-70
2023/09/29 20:52:44;;;;;;;;;;;14.70;99.90;;;;;;8394707;28;20523;-70
2023/09/29 20:56:46;;;;;;;;;;;14.70;99.90;;;;;;8397985;28;20313;-70
2023/09/29 21:00:48;;;;;;;;;;;14.60;99.90;;;;;;8376082;28;19928;-71
2023/09/29 21:04:50;;;;;;;;;;;14.60;99.90;;;;;;8408924;28;19924;-70
2023/09/29 21:08:51;;;;;;;;;;;14.60;99.90;;;;;;8414080;28;19963;-70
2023/09/29 21:12:53;;;;;;;;;;;14.50;99.90;;;;;;8415714;28;19932;-70
2023/09/29 21:27:27;;;;;;;;;;;14.30;99.90;;;;;;8417039;28;19920;-70
2023/09/29 21:31:29;;;;;;;;;;;14.30;99.90;;;;;;8413212;28;19981;-70
2023/09/29 21:35:33;;;;;;;;;;;14.30;99.90;;;;;;8417842;28;19932;-70
2023/09/29 21:39:34;;;;;;;;;;;14.20;99.90;;;;;;8419412;28;19938;-70
2023/09/29 21:43:36;;;;;;;;;;;14.20;99.90;;;;;;8414300;28;19931;-70
2023/09/29 21:47:38;;;;;;;;;;;14.20;99.90;;;;;;8405518;28;19932;-70
2023/09/29 21:51:40;;;;;;;;;;;14.10;99.90;;;;;;8415512;28;19954;-70
2023/09/29 21:55:42;;;;;;;;;;;14.10;99.90;;;;;;8420033;28;20027;-71
2023/09/29 21:59:43;;;;;;;;;;;14.00;99.90;;;;;;8417029;28;19924;-70
2023/09/29 22:03:45;;;;;;;;;;;14.00;99.90;;;;;;8406304;28;20390;-70
2023/09/29 22:07:48;;;;;;;;;;;13.90;99.90;;;;;;8407849;28;20330;-70
2023/09/29 22:11:50;;;;;;;;;;;13.90;99.90;;;;;;8394229;28;20383;-70
2023/09/29 22:15:52;;;;;;;;;;;13.90;99.90;;;;;;8404785;28;19932;-70
2023/09/29 22:19:53;;;;;;;;;;;13.80;99.90;;;;;;8405641;28;19924;-70
2023/09/29 22:23:57;;;;;;;;;;;13.80;99.90;;;;;;8415088;28;23503;-70
2023/09/29 22:27:59;;;;;;;;;;;13.80;99.90;;;;;;8415277;28;19932;-70
2023/09/29 22:32:02;;;;;;;;;;;13.70;99.90;;;;;;8390940;28;20444;-70
2023/09/29 22:36:04;;;;;;;;;;;13.70;99.90;;;;;;8398401;28;20453;-71
2023/09/29 22:40:07;;;;;;;;;;;13.70;99.90;;;;;;8414069;28;19973;-70
2023/09/29 22:44:08;;;;;;;;;;;13.60;99.90;;;;;;8391836;28;19939;-71
2023/09/29 22:48:10;;;;;;;;;;;13.60;99.90;;;;;;8415014;28;19939;-70
2023/09/29 22:52:12;;;;;;;;;;;13.60;99.90;;;;;;8414063;28;19958;-70
2023/09/29 22:56:15;;;;;;;;;;;13.60;99.90;;;;;;8414152;28;19924;-70
2023/09/29 23:00:17;;;;;;;;;;;13.60;99.90;;;;;;8412063;28;20919;-70
2023/09/29 23:04:18;;;;;;;;;;;13.50;99.90;;;;;;8415611;28;19924;-70
2023/09/29 23:08:21;;;;;;;;;;;13.50;99.90;;;;;;8403411;28;19985;-70
2023/09/29 23:12:23;;;;;;;;;;;13.50;99.90;;;;;;8411619;28;19932;-70
2023/09/29 23:16:24;;;;;;;;;;;13.50;99.90;;;;;;8414045;28;19928;-70
2023/09/29 23:20:26;;;;;;;;;;;13.40;99.90;;;;;;8408126;28;19931;-70
2023/09/29 23:24:27;;;;;;;;;;;13.40;99.90;;;;;;8414830;28;19928;-70
2023/09/29 23:28:29;;;;;;;;;;;13.40;99.90;;;;;;8416965;28;19924;-70
2023/09/29 23:32:31;;;;;;;;;;;13.40;99.90;;;;;;8414978;28;20363;-70
2023/09/29 23:36:33;;;;;;;;;;;13.40;99.90;;;;;;8410179;28;19935;-70
2023/09/29 23:40:35;;;;;;;;;;;13.40;99.90;;;;;;8420817;28;20344;-70
2023/09/29 23:44:37;;;;;;;;;;;13.30;99.90;;;;;;8414716;28;19974;-70
2023/09/29 23:48:38;;;;;;;;;;;13.30;99.90;;;;;;8397719;28;20462;-70
2023/09/29 23:52:40;;;;;;;;;;;13.30;99.90;;;;;;8421487;28;19930;-70
2023/09/29 23:56:42;;;;;;;;;;;13.30;99.90;;;;;;8415315;28;19924;-70
